Ewing, NE

1:24 PM CDT on April 19, 2015 (GMT -0500)
Deloit 12 south 2 west of Ewing | | Change Station
CLOSE
Current Station
Personal Weather Station
Location: Ewing, NE
Elevation: 1965 ft
Nearby Weather Stations

Elev 1965 ft 42.09 °N, 98.38 °W | Updated 0 second ago

Overcast
Overcast
51.4 °F
Feels Like 51.4 °F
N
27.0
Wind Variable Wind from NNW
Gusts 27.0 mph

Today
High -- | Low -- °F
--% Chance of Precip.
Yesterday
High -- | Low -- °F
Precip. -- in
6:46 AM 8:19 PM
New Moon, 1% visible
Pressure 29.84 in
Visibility 10.0 miles
Clouds Mostly Cloudy 7500 ft
Mostly Cloudy 11000 ft
Dew Point 35 °F
Humidity 53%
Rainfall 0.00 in
Snow Depth Not available.
UV 4.4 out of 12
Pollen 11.20 out of 12
Air Quality Not available.
Flu Activity Local Activity
METAR KBVN 191815Z AUTO 34026G34KT 10SM BKN075 BKN110 11/M01 A2984 RMK AO2 T01111009

More Conditions Fewer Conditions

Pressure 29.84 in
Visibility 10.0 miles
Clouds Mostly Cloudy 7500 ft
Mostly Cloudy 11000 ft
Dew Point 35 °F
Humidity 53%
Rainfall 0.00 in
Snow Depth Not available.
UV 4.4 out of 12
Pollen 11.20 out of 12
Air Quality Not available.
Flu Activity Local Activity
METAR KBVN 191815Z AUTO 34026G34KT 10SM BKN075 BKN110 11/M01 A2984 RMK AO2 T01111009

More Conditions Fewer Conditions

10-Day Weather Forecast

Almanac

Astronomy

Apr. 19, 2015 Rise Set
Actual Time
Civil Twilight
Nautical Twilight
Astronomical Twilight
Moon
Length of Visible Light
Length of Day
Tomorrow will be .
, % of the Moon is Illuminated

Today's Extremes

State Highs State Lows

Community

WunderPhotos

Upload Photos

1,814,896 photos uploaded!

WunderBlogs® & News

Nearby

Air Quality

  Air Quality AQ Index Pollutant
Not available.

Snow Depth

Station Depth Elevation

Earthquake Activity

City Distance Mag. Time & Date
Minimum magnitude displayed is 2.5.

Coastal Water Temperatures

Place Temperature

Stations

Nearby Weather Stations

Station Location Temp. Windchill Dew Point Humidity Wind Precip. Elev Updated Type